Time;durP1;ratioP1;P1;durP2;ratioP2;P2;SDS_P1;SDS_P2;PMS_P1;PMS_P2;Temp;Humidity;BMP_temperature;BMP_pressure;BME280_temperature;BME280_humidity;BME280_pressure;Samples;Min_cycle;Max_cycle;Signal;HPM_P1;HPM_P2
2022/01/17 00:01:52;;;;;;;22.77;16.40;;;;;;;3.05;100.00;100400.13;5073712;28;20746;-85
2022/01/17 00:04:22;;;;;;;24.50;16.73;;;;;;;3.01;100.00;100389.75;5068741;28;20223;-83
2022/01/17 00:06:50;;;;;;;22.73;17.13;;;;;;;2.98;100.00;100390.63;5072401;28;20367;-84
2022/01/17 00:09:20;;;;;;;22.87;14.97;;;;;;;3.13;100.00;100384.31;5069749;28;20310;-83
2022/01/17 00:11:51;;;;;;;24.07;15.20;;;;;;;3.17;100.00;100392.09;5066763;28;20201;-84
2022/01/17 00:14:23;;;;;;;24.93;16.77;;;;;;;3.11;100.00;100384.34;5072321;28;20231;-86
2022/01/17 00:17:07;;;;;;;21.40;15.77;;;;;;;3.11;100.00;100376.50;5053790;28;20204;-83
2022/01/17 00:19:41;;;;;;;22.93;15.33;;;;;;;3.14;100.00;100373.81;5063769;27;20205;-83
2022/01/17 00:22:14;;;;;;;23.97;14.37;;;;;;;3.16;100.00;100379.91;5063204;27;20212;-83
2022/01/17 00:24:43;;;;;;;21.97;14.83;;;;;;;3.14;100.00;100365.97;5063438;27;20242;-83
2022/01/17 00:27:17;;;;;;;21.93;16.17;;;;;;;3.11;100.00;100370.41;5064737;27;20667;-84
2022/01/17 00:29:45;;;;;;;23.23;15.90;;;;;;;3.12;100.00;100365.13;5060865;27;20197;-83
2022/01/17 00:32:18;;;;;;;22.20;14.80;;;;;;;3.16;100.00;100356.34;5061183;28;20262;-84
2022/01/17 00:34:47;;;;;;;22.40;15.83;;;;;;;3.12;100.00;100354.66;5061046;27;20193;-84
2022/01/17 00:37:15;;;;;;;21.00;15.17;;;;;;;3.13;100.00;100345.06;5062896;28;20644;-83
2022/01/17 00:39:45;;;;;;;20.57;14.43;;;;;;;3.14;100.00;100344.16;5143884;27;20277;-83
2022/01/17 00:42:14;;;;;;;23.60;17.00;;;;;;;3.10;100.00;100347.72;5171368;27;20299;-85
2022/01/17 00:44:45;;;;;;;21.77;14.73;;;;;;;3.20;100.00;100344.09;5172497;27;20185;-84
2022/01/17 00:47:13;;;;;;;21.20;15.53;;;;;;;3.14;100.00;100349.41;5177736;27;20182;-84
2022/01/17 00:49:42;;;;;;;23.43;15.93;;;;;;;3.12;100.00;100352.06;5173358;27;20191;-85
2022/01/17 00:52:11;;;;;;;22.07;14.40;;;;;;;3.22;100.00;100365.88;5121695;27;20200;-85
2022/01/17 00:54:40;;;;;;;22.10;14.77;;;;;;;3.29;100.00;100378.00;5178928;27;20188;-85
2022/01/17 00:57:08;;;;;;;21.73;14.10;;;;;;;3.32;100.00;100384.94;5179663;27;20207;-84
2022/01/17 00:59:37;;;;;;;21.10;14.27;;;;;;;3.28;100.00;100396.31;5180883;27;20192;-83
2022/01/17 01:02:07;;;;;;;21.83;14.50;;;;;;;3.35;100.00;100404.06;5183424;27;20217;-84
2022/01/17 01:04:35;;;;;;;19.67;13.93;;;;;;;3.31;100.00;100407.63;5173764;27;20229;-84
2022/01/17 01:07:04;;;;;;;22.67;14.20;;;;;;;3.24;100.00;100416.44;5174170;27;20200;-83
2022/01/17 01:09:40;;;;;;;21.40;13.40;;;;;;;3.32;100.00;100418.97;5178179;27;20197;-85
2022/01/17 01:12:09;;;;;;;20.23;13.43;;;;;;;3.41;100.00;100414.47;5171837;27;20204;-84
2022/01/17 01:14:41;;;;;;;19.87;13.87;;;;;;;3.34;100.00;100397.09;5167313;27;20197;-83
2022/01/17 01:17:29;;;;;;;21.83;13.47;;;;;;;3.31;100.00;100401.53;5181119;27;20193;-84
2022/01/17 01:20:08;;;;;;;21.83;15.33;;;;;;;3.19;100.00;100412.19;5179989;27;20201;-83
2022/01/17 01:28:07;;;;;;;22.63;14.00;;;;;;;3.28;100.00;100427.72;5176728;27;20188;-84
2022/01/17 01:30:41;;;;;;;22.37;15.47;;;;;;;3.24;100.00;100419.06;5166444;27;20207;-84
2022/01/17 01:33:11;;;;;;;24.27;15.03;;;;;;;3.24;100.00;100420.81;5173391;27;20193;-84
2022/01/17 01:35:46;;;;;;;23.27;16.07;;;;;;;3.14;100.00;100427.94;5161869;27;20249;-84
2022/01/17 01:38:16;;;;;;;20.43;13.63;;;;;;;3.22;100.00;100427.84;5172896;27;20271;-83
2022/01/17 01:40:45;;;;;;;23.00;15.50;;;;;;;3.22;100.00;100426.09;5174614;27;20185;-84
2022/01/17 01:43:14;;;;;;;21.57;14.43;;;;;;;3.28;100.00;100423.41;5173364;27;20220;-84
2022/01/17 01:45:47;;;;;;;21.70;15.07;;;;;;;3.16;100.00;100415.69;5170696;27;20205;-84
2022/01/17 01:48:19;;;;;;;23.00;15.23;;;;;;;3.29;100.00;100432.13;5173200;27;20181;-84
2022/01/17 01:50:48;;;;;;;23.47;15.80;;;;;;;3.16;100.00;100434.00;5171609;27;20208;-84
2022/01/17 01:53:16;;;;;;;21.27;14.13;;;;;;;3.37;100.00;100432.84;5172577;27;20189;-84
2022/01/17 01:55:46;;;;;;;21.07;13.73;;;;;;;3.40;100.00;100431.06;5177607;27;20199;-84
2022/01/17 01:58:15;;;;;;;21.90;14.33;;;;;;;3.28;100.00;100438.22;5168655;27;20193;-83
2022/01/17 02:00:43;;;;;;;21.90;13.97;;;;;;;3.32;100.00;100432.91;5170230;27;20200;-83
2022/01/17 02:03:12;;;;;;;20.13;13.90;;;;;;;3.19;100.00;100420.91;5167742;27;20220;-86
2022/01/17 02:05:43;;;;;;;24.73;16.13;;;;;;;3.15;100.00;100401.72;5105596;28;20198;-83
2022/01/17 02:08:14;;;;;;;20.30;13.03;;;;;;;3.20;100.00;100400.81;5103895;28;20203;-83
2022/01/17 02:10:43;;;;;;;20.07;12.73;;;;;;;3.27;100.00;100405.94;5110856;28;20206;-84
2022/01/17 02:13:11;;;;;;;21.77;14.20;;;;;;;3.22;100.00;100409.50;5103896;28;20650;-83
2022/01/17 02:15:43;;;;;;;17.63;12.50;;;;;;;3.27;100.00;100389.34;5113315;28;20191;-84
2022/01/17 02:18:18;;;;;;;17.43;12.03;;;;;;;3.37;100.00;100398.81;5108938;28;20187;-83
2022/01/17 02:21:09;;;;;;;19.37;12.37;;;;;;;3.34;100.00;100415.44;5049627;28;20189;-84
2022/01/17 02:23:38;;;;;;;17.83;12.17;;;;;;;3.33;100.00;100412.84;5073687;28;20218;-84
2022/01/17 02:26:07;;;;;;;19.20;12.70;;;;;;;3.35;100.00;100409.31;5121027;28;20221;-83
2022/01/17 02:28:37;;;;;;;17.80;13.73;;;;;;;3.31;100.00;100407.63;5083926;28;20232;-85
2022/01/17 02:31:06;;;;;;;16.57;11.60;;;;;;;3.37;100.00;100407.53;5110246;28;20199;-84
2022/01/17 02:33:35;;;;;;;17.77;12.13;;;;;;;3.36;100.00;100402.31;5102753;28;20715;-83
2022/01/17 02:36:06;;;;;;;18.87;13.10;;;;;;;3.32;100.00;100408.50;5106514;28;20230;-84
2022/01/17 02:38:36;;;;;;;16.10;10.77;;;;;;;3.39;100.00;100411.00;5131280;27;20221;-84
2022/01/17 02:41:04;;;;;;;16.23;10.70;;;;;;;3.32;100.00;100404.13;5173914;27;20189;-84
2022/01/17 02:43:33;;;;;;;15.20;9.90;;;;;;;3.33;100.00;100394.50;5168456;27;20220;-84
2022/01/17 02:48:50;;;;;;;15.97;11.20;;;;;;;3.21;100.00;100386.84;5071955;28;20188;-85
2022/01/17 02:51:23;;;;;;;16.37;12.93;;;;;;;3.17;100.00;100381.63;5070592;28;20250;-83
2022/01/17 02:53:52;;;;;;;15.37;10.60;;;;;;;3.28;100.00;100378.88;5061599;28;20256;-84
2022/01/17 02:56:21;;;;;;;16.80;10.97;;;;;;;3.23;100.00;100377.22;5065227;28;20193;-84
2022/01/17 02:58:51;;;;;;;18.30;10.43;;;;;;;3.28;100.00;100383.22;5065086;28;20228;-83
2022/01/17 03:01:29;;;;;;;14.43;10.23;;;;;;;3.23;100.00;100371.97;5068495;28;20191;-84
2022/01/17 03:03:58;;;;;;;13.07;9.70;;;;;;;3.26;100.00;100359.69;5063015;28;20209;-83
2022/01/17 03:06:29;;;;;;;13.73;9.50;;;;;;;3.22;100.00;100373.72;5066484;28;20193;-86
2022/01/17 03:08:58;;;;;;;12.87;9.13;;;;;;;3.26;100.00;100377.16;5067204;28;20203;-84
2022/01/17 03:11:29;;;;;;;14.73;9.97;;;;;;;3.27;100.00;100364.03;5066166;28;20212;-84
2022/01/17 03:13:59;;;;;;;15.17;9.33;;;;;;;3.25;100.00;100371.06;5067049;28;20200;-83
2022/01/17 03:16:33;;;;;;;12.30;8.10;;;;;;;3.29;100.00;100361.41;5063100;28;20196;-83
2022/01/17 03:19:02;;;;;;;11.43;7.90;;;;;;;3.34;100.00;100349.97;5092454;27;20220;-84
2022/01/17 03:21:32;;;;;;;10.97;7.60;;;;;;;3.36;100.00;100349.94;5175372;27;20639;-83
2022/01/17 03:24:02;;;;;;;13.17;8.27;;;;;;;3.33;100.00;100361.34;5119417;28;20218;-83
2022/01/17 03:26:32;;;;;;;14.00;7.90;;;;;;;3.29;100.00;100361.41;5115613;28;20278;-83
2022/01/17 03:29:01;;;;;;;16.43;11.20;;;;;;;3.21;100.00;100353.66;5119060;28;20263;-83
2022/01/17 03:31:30;;;;;;;9.53;7.10;;;;;;;3.31;100.00;100351.78;5109063;28;20210;-82
2022/01/17 03:33:58;;;;;;;11.77;8.57;;;;;;;3.22;100.00;100357.16;5088992;28;20199;-82
2022/01/17 03:36:26;;;;;;;11.63;7.13;;;;;;;3.31;100.00;100362.25;5090061;28;20203;-83
2022/01/17 03:38:57;;;;;;;11.83;8.40;;;;;;;3.22;100.00;100363.25;5091774;28;20288;-83
2022/01/17 03:41:26;;;;;;;10.57;7.57;;;;;;;3.32;100.00;100374.44;5090080;28;20207;-83
2022/01/17 03:43:55;;;;;;;9.50;6.87;;;;;;;3.33;100.00;100370.94;5092779;28;20222;-83
2022/01/17 03:46:25;;;;;;;11.50;8.50;;;;;;;3.28;100.00;100377.97;5091463;28;20200;-83
2022/01/17 03:48:54;;;;;;;11.67;8.57;;;;;;;3.33;100.00;100378.81;5123379;27;20185;-83
2022/01/17 03:51:22;;;;;;;11.33;7.87;;;;;;;3.41;100.00;100388.28;5154467;27;20193;-83
2022/01/17 03:53:52;;;;;;;10.93;9.03;;;;;;;3.26;100.00;100396.34;5172278;27;20265;-83
2022/01/17 03:56:23;;;;;;;11.87;8.30;;;;;;;3.31;100.00;100384.06;5165303;27;20193;-84
2022/01/17 03:58:54;;;;;;;14.60;10.10;;;;;;;3.30;100.00;100389.34;5173730;27;20235;-83
2022/01/17 04:01:22;;;;;;;12.80;9.63;;;;;;;3.26;100.00;100396.34;5170098;27;20193;-82
2022/01/17 04:03:51;;;;;;;11.53;8.70;;;;;;;3.27;100.00;100395.44;5172937;27;20216;-86
2022/01/17 04:06:19;;;;;;;12.67;8.47;;;;;;;3.28;100.00;100385.84;5179654;27;20196;-83
2022/01/17 04:08:47;;;;;;;11.47;8.33;;;;;;;3.25;100.00;100383.28;5167320;27;20319;-84
2022/01/17 04:11:16;;;;;;;13.63;7.93;;;;;;;3.34;100.00;100389.25;5171092;27;20195;-84
2022/01/17 04:13:46;;;;;;;10.63;7.80;;;;;;;3.34;100.00;100380.53;5167617;27;20197;-85
2022/01/17 04:16:14;;;;;;;11.77;8.00;;;;;;;3.41;100.00;100385.66;5174014;27;20195;-84
2022/01/17 04:18:44;;;;;;;12.80;8.60;;;;;;;3.37;100.00;100383.09;5107938;28;20268;-85
2022/01/17 04:21:12;;;;;;;13.73;7.77;;;;;;;3.44;100.00;100387.34;5109576;28;20693;-84
2022/01/17 04:23:41;;;;;;;11.00;8.13;;;;;;;3.41;100.00;100384.78;5112845;28;20215;-85
2022/01/17 04:26:09;;;;;;;12.50;8.77;;;;;;;3.28;100.00;100378.88;5107990;28;20229;-84
2022/01/17 04:28:39;;;;;;;13.43;9.40;;;;;;;3.33;100.00;100377.03;5107424;28;20271;-84
2022/01/17 04:31:09;;;;;;;14.00;9.53;;;;;;;3.26;100.00;100356.22;5107282;28;20202;-84
2022/01/17 04:33:41;;;;;;;15.30;10.63;;;;;;;3.20;100.00;100369.41;5106833;28;20210;-84
2022/01/17 04:36:10;;;;;;;17.70;10.77;;;;;;;3.20;100.00;100358.94;5121524;27;20181;-85
2022/01/17 04:38:40;;;;;;;17.43;10.70;;;;;;;3.16;100.00;100366.81;5175534;27;20217;-84
2022/01/17 04:41:15;;;;;;;16.47;10.43;;;;;;;3.26;100.00;100374.53;5171566;27;20189;-84
2022/01/17 04:43:56;;;;;;;17.47;11.57;;;;;;;3.19;100.00;100391.25;5173442;27;20208;-84
2022/01/17 04:46:26;;;;;;;15.37;11.23;;;;;;;3.33;100.00;100408.47;5177004;27;20193;-84
2022/01/17 04:48:57;;;;;;;17.83;12.23;;;;;;;3.23;100.00;100412.09;5176402;27;20201;-85
2022/01/17 04:51:25;;;;;;;17.67;11.87;;;;;;;3.37;100.00;100411.91;5177011;27;20262;-85
2022/01/17 04:54:15;;;;;;;19.37;12.53;;;;;;;3.19;100.00;100415.66;5171950;27;20249;-83
2022/01/17 04:56:43;;;;;;;18.80;11.30;;;;;;;3.29;100.00;100425.13;5178126;27;20181;-84
2022/01/17 04:59:11;;;;;;;16.20;11.60;;;;;;;3.19;100.00;100426.13;5174596;27;20196;-84
2022/01/17 05:01:41;;;;;;;18.87;10.90;;;;;;;3.27;100.00;100431.25;5172253;27;20639;-84
2022/01/17 05:04:09;;;;;;;20.43;11.70;;;;;;;3.37;100.00;100441.56;5172736;27;20232;-85
2022/01/17 05:06:37;;;;;;;16.97;12.07;;;;;;;3.23;100.00;100416.47;5171411;27;20204;-85
2022/01/17 05:09:06;;;;;;;16.60;11.40;;;;;;;3.20;100.00;100409.53;5195611;27;20212;-81
2022/01/17 05:11:35;;;;;;;18.23;11.73;;;;;;;3.29;100.00;100416.41;5203237;27;20254;-82
2022/01/17 05:14:04;;;;;;;16.53;11.50;;;;;;;3.25;100.00;100412.06;5192259;27;20221;-81
2022/01/17 05:16:37;;;;;;;19.73;12.77;;;;;;;3.28;100.00;100407.69;5191518;27;20249;-82
2022/01/17 05:21:53;;;;;;;22.83;13.40;;;;;;;3.16;100.00;100394.75;5179341;27;20181;-85
2022/01/17 05:24:21;;;;;;;20.33;12.87;;;;;;;3.20;100.00;100396.44;5174964;27;20220;-84
2022/01/17 05:26:50;;;;;;;23.33;13.47;;;;;;;3.17;100.00;100394.72;5169634;27;20338;-85
2022/01/17 05:29:19;;;;;;;21.20;13.77;;;;;;;3.17;100.00;100396.47;5170700;27;20706;-85
2022/01/17 05:31:47;;;;;;;20.17;12.27;;;;;;;3.20;100.00;100385.13;5174604;27;20233;-87
2022/01/17 05:34:17;;;;;;;23.87;15.50;;;;;;;3.13;100.00;100384.31;5164875;27;20190;-84
2022/01/17 05:36:49;;;;;;;23.00;14.57;;;;;;;3.11;100.00;100384.34;5173884;27;20189;-84
2022/01/17 05:39:18;;;;;;;23.17;14.40;;;;;;;3.16;100.00;100387.75;5174688;27;20223;-85
2022/01/17 05:41:46;;;;;;;24.83;15.40;;;;;;;3.17;100.00;100373.78;5177503;27;20200;-84
2022/01/17 05:44:15;;;;;;;27.37;15.60;;;;;;;3.19;100.00;100380.78;5171590;27;20193;-85
2022/01/17 05:46:45;;;;;;;28.03;15.30;;;;;;;3.22;100.00;100389.44;5170388;27;20640;-84
2022/01/17 05:49:13;;;;;;;28.70;15.20;;;;;;;3.32;100.00;100398.03;5173068;27;20201;-84
2022/01/17 05:51:45;;;;;;;25.93;15.93;;;;;;;3.38;100.00;100398.81;5173497;27;20192;-84
2022/01/17 05:54:14;;;;;;;25.03;15.20;;;;;;;3.46;100.00;100417.00;5173562;27;20289;-85
2022/01/17 05:56:42;;;;;;;28.27;16.80;;;;;;;3.51;100.00;100399.47;5170820;27;20218;-84
2022/01/17 05:59:10;;;;;;;27.17;17.13;;;;;;;3.51;100.00;100399.47;5166031;27;20225;-85
2022/01/17 06:01:42;;;;;;;24.20;15.47;;;;;;;3.59;100.00;100394.13;5167974;27;20185;-85
2022/01/17 06:04:10;;;;;;;24.53;14.77;;;;;;;3.66;100.00;100388.75;5171026;27;20197;-84
2022/01/17 06:06:38;;;;;;;29.13;15.23;;;;;;;3.69;100.00;100380.00;5165604;27;20193;-85
2022/01/17 06:09:09;;;;;;;29.63;15.67;;;;;;;3.71;100.00;100380.81;5167628;27;20261;-85
2022/01/17 06:11:45;;;;;;;31.00;15.67;;;;;;;3.73;100.00;100382.53;5172585;27;20189;-85
2022/01/17 06:14:17;;;;;;;32.67;15.97;;;;;;;3.81;100.00;100378.91;5176951;27;20674;-84
2022/01/17 06:16:46;;;;;;;25.43;14.73;;;;;;;3.78;100.00;100394.69;5168771;27;20181;-85
2022/01/17 06:19:15;;;;;;;25.47;15.47;;;;;;;3.89;100.00;100395.38;5172751;27;20268;-85
2022/01/17 06:21:45;;;;;;;26.23;14.13;;;;;;;3.89;100.00;100385.75;5167786;27;20200;-84
2022/01/17 06:24:18;;;;;;;26.63;13.83;;;;;;;3.96;100.00;100387.41;5089882;28;20192;-85
2022/01/17 06:26:48;;;;;;;31.13;15.07;;;;;;;3.94;100.00;100389.16;5091200;28;20199;-84
2022/01/17 06:29:16;;;;;;;26.50;15.10;;;;;;;3.95;100.00;100384.78;5085877;28;20203;-84
2022/01/17 06:31:45;;;;;;;23.67;13.77;;;;;;;3.99;100.00;100395.19;5087256;28;20222;-84
2022/01/17 06:34:14;;;;;;;23.93;15.37;;;;;;;3.97;100.00;100389.13;5086934;28;20199;-83
2022/01/17 06:36:43;;;;;;;22.93;13.40;;;;;;;4.02;100.00;100389.88;5087863;28;20204;-83
2022/01/17 06:39:12;;;;;;;19.97;13.00;;;;;;;4.04;100.00;100392.47;5091968;28;20233;-84
2022/01/17 06:41:43;;;;;;;22.77;12.50;;;;;;;4.15;100.00;100379.19;5105433;27;20196;-84
2022/01/17 06:44:11;;;;;;;25.07;14.87;;;;;;;4.14;100.00;100390.56;5171910;27;20317;-83
2022/01/17 06:46:39;;;;;;;22.37;13.43;;;;;;;4.12;100.00;100390.59;5168872;27;20212;-84
2022/01/17 06:49:10;;;;;;;23.80;13.23;;;;;;;4.22;100.00;100386.03;5166613;27;20253;-84
2022/01/17 06:51:40;;;;;;;23.20;12.57;;;;;;;4.23;100.00;100382.53;5168438;27;20191;-84
2022/01/17 06:54:08;;;;;;;22.27;13.27;;;;;;;4.16;100.00;100375.69;5172626;27;20185;-84
2022/01/17 06:56:37;;;;;;;22.57;12.80;;;;;;;4.27;100.00;100386.84;5167844;27;20498;-84
2022/01/17 06:59:07;;;;;;;18.77;12.03;;;;;;;4.29;100.00;100392.91;5172325;27;20191;-83
2022/01/17 07:01:40;;;;;;;21.37;12.53;;;;;;;4.24;100.00;100395.59;5176032;27;20221;-85
2022/01/17 07:04:10;;;;;;;19.67;12.50;;;;;;;4.28;100.00;100397.28;5172071;27;20193;-84
2022/01/17 07:06:41;;;;;;;24.43;13.40;;;;;;;4.35;100.00;100400.69;5168111;27;20268;-85
2022/01/17 07:09:12;;;;;;;20.80;11.90;;;;;;;4.30;100.00;100403.38;5170429;27;20200;-84
2022/01/17 07:11:40;;;;;;;22.80;12.60;;;;;;;4.22;100.00;100413.13;5165143;27;20208;-84
2022/01/17 07:14:14;;;;;;;19.13;12.23;;;;;;;4.30;100.00;100415.63;5173199;27;20681;-84
2022/01/17 07:16:44;;;;;;;22.50;11.60;;;;;;;4.39;100.00;100428.56;5170173;27;20200;-83
2022/01/17 07:19:12;;;;;;;17.57;10.73;;;;;;;4.37;100.00;100455.72;5175249;27;20193;-84
2022/01/17 07:21:40;;;;;;;20.30;9.73;;;;;;;4.48;100.00;100445.91;5173002;27;20197;-84
2022/01/17 07:24:29;;;;;;;22.60;11.33;;;;;;;4.53;100.00;100423.06;5176106;27;20232;-85
2022/01/17 07:27:01;;;;;;;19.70;10.33;;;;;;;4.51;100.00;100406.47;5170392;27;20217;-85
2022/01/17 07:29:33;;;;;;;18.23;10.30;;;;;;;4.54;100.00;100416.94;5169493;27;20185;-84
2022/01/17 07:32:02;;;;;;;16.53;9.00;;;;;;;4.48;100.00;100417.91;5172612;27;20245;-84
2022/01/17 07:34:30;;;;;;;19.97;9.40;;;;;;;4.53;100.00;100415.19;5172015;27;20197;-83
2022/01/17 07:36:59;;;;;;;15.37;9.00;;;;;;;4.58;100.00;100408.09;5171319;27;20645;-84
2022/01/17 07:39:28;;;;;;;17.50;9.17;;;;;;;4.62;100.00;100411.53;5172094;27;20220;-84
2022/01/17 07:41:56;;;;;;;16.80;9.43;;;;;;;4.57;100.00;100417.72;5175937;27;20205;-84
2022/01/17 07:44:26;;;;;;;17.50;8.23;;;;;;;4.67;100.00;100410.53;5172763;27;20200;-84
2022/01/17 07:46:58;;;;;;;15.13;8.30;;;;;;;4.71;100.00;100420.06;5168103;27;20244;-85
2022/01/17 07:49:27;;;;;;;17.97;9.50;;;;;;;4.57;100.00;100415.13;5172662;27;20664;-84
2022/01/17 07:51:59;;;;;;;18.70;8.07;;;;;;;4.72;100.00;100440.16;5173345;27;20192;-84
2022/01/17 07:54:28;;;;;;;18.90;8.00;;;;;;;4.82;100.00;100438.22;5167761;27;20203;-84
2022/01/17 07:56:57;;;;;;;18.43;7.40;;;;;;;4.87;100.00;100452.16;5166565;27;20245;-84
2022/01/17 07:59:26;;;;;;;16.60;7.87;;;;;;;4.90;100.00;100444.19;5166671;27;20204;-83
2022/01/17 08:01:56;;;;;;;13.53;6.53;;;;;;;4.85;100.00;100443.44;5173345;27;20642;-84
2022/01/17 08:04:25;;;;;;;15.80;6.40;;;;;;;4.92;100.00;100436.28;5160123;27;20193;-84
2022/01/17 08:06:53;;;;;;;14.73;6.50;;;;;;;4.95;100.00;100434.47;5169962;27;20213;-84
2022/01/17 08:09:25;;;;;;;14.77;6.97;;;;;;;4.98;100.00;100441.41;5172594;27;20217;-84
2022/01/17 08:12:05;;;;;;;13.40;6.10;;;;;;;5.03;100.00;100437.81;5178218;27;20261;-83
2022/01/17 08:14:34;;;;;;;10.23;5.60;;;;;;;5.06;100.00;100444.75;5175260;27;20220;-84
2022/01/17 08:17:05;;;;;;;13.60;5.63;;;;;;;5.03;100.00;100452.72;5156754;27;20196;-82
2022/01/17 08:19:34;;;;;;;12.97;5.97;;;;;;;5.06;100.00;100468.38;5180402;27;20240;-84
2022/01/17 08:22:05;;;;;;;13.27;6.27;;;;;;;5.00;100.00;100466.75;5174845;27;20200;-84
2022/01/17 08:24:34;;;;;;;15.47;6.03;;;;;;;5.12;100.00;100465.66;5176373;27;20189;-84
2022/01/17 08:27:04;;;;;;;15.97;5.80;;;;;;;5.14;100.00;100448.97;5178963;27;20240;-84
2022/01/17 08:29:34;;;;;;;12.80;6.10;;;;;;;5.09;100.00;100435.03;5176521;27;20197;-84
2022/01/17 08:32:07;;;;;;;9.43;5.63;;;;;;;5.02;100.00;100437.81;5171903;27;20193;-84
2022/01/17 08:34:35;;;;;;;10.67;5.77;;;;;;;5.12;100.00;100444.66;5173031;27;20195;-84
2022/01/17 08:37:05;;;;;;;14.20;6.13;;;;;;;5.05;100.00;100427.28;5175239;27;20226;-83
2022/01/17 08:39:33;;;;;;;11.83;5.87;;;;;;;5.10;100.00;100422.78;5174507;27;20225;-83
2022/01/17 08:42:08;;;;;;;13.27;6.53;;;;;;;5.01;100.00;100420.34;5169815;27;20238;-83
2022/01/17 08:44:38;;;;;;;13.27;5.60;;;;;;;5.06;100.00;100426.38;5174618;27;20197;-84
2022/01/17 08:47:08;;;;;;;9.47;5.90;;;;;;;5.14;100.00;100422.69;5175673;27;20217;-83
2022/01/17 08:49:37;;;;;;;10.10;5.80;;;;;;;5.19;100.00;100422.59;5171704;27;20208;-84
2022/01/17 08:52:05;;;;;;;8.97;5.70;;;;;;;5.09;100.00;100419.28;5174583;27;20204;-84
2022/01/17 08:54:34;;;;;;;18.60;7.40;;;;;;;5.21;100.00;100422.53;5175572;27;20249;-84
2022/01/17 08:57:02;;;;;;;14.20;6.33;;;;;;;5.18;100.00;100428.72;5170329;27;20197;-83
2022/01/17 08:59:31;;;;;;;15.53;6.50;;;;;;;5.25;100.00;100430.34;5168537;27;20200;-84
2022/01/17 09:02:00;;;;;;;17.07;10.70;;;;;;;5.17;100.00;100437.50;5170241;27;20204;-84
2022/01/17 09:04:31;;;;;;;13.03;7.30;;;;;;;5.20;100.00;100432.19;5172847;27;20201;-84
2022/01/17 09:06:59;;;;;;;17.33;7.17;;;;;;;5.28;100.00;100440.78;5175489;27;20257;-84
2022/01/17 09:09:28;;;;;;;17.17;7.53;;;;;;;5.29;100.00;100462.66;5178452;27;20189;-83
2022/01/17 09:11:57;;;;;;;12.43;7.00;;;;;;;5.34;100.00;100473.94;5171193;27;20188;-83
2022/01/17 09:14:27;;;;;;;13.77;7.93;;;;;;;5.27;100.00;100475.81;5178281;27;20185;-84
2022/01/17 09:16:57;;;;;;;13.63;7.47;;;;;;;5.34;100.00;100469.53;5168486;27;20193;-84
2022/01/17 09:19:25;;;;;;;13.27;6.63;;;;;;;5.42;100.00;100472.00;5169601;27;20246;-83
2022/01/17 09:21:55;;;;;;;13.97;7.33;;;;;;;5.31;100.00;100467.00;5169846;27;20204;-83
2022/01/17 09:24:26;;;;;;;16.70;7.17;;;;;;;5.33;100.00;100465.19;5169682;27;20245;-83
2022/01/17 09:26:54;;;;;;;15.10;7.37;;;;;;;5.43;100.00;100469.34;5175124;27;20235;-83
2022/01/17 09:29:22;;;;;;;18.43;8.00;;;;;;;5.49;100.00;100470.09;5171459;27;20181;-83
2022/01/17 09:31:51;;;;;;;15.30;7.00;;;;;;;5.39;100.00;100480.81;5173153;27;20280;-83
2022/01/17 09:34:20;;;;;;;13.50;7.23;;;;;;;5.44;100.00;100494.72;5173425;27;20213;-84
2022/01/17 09:36:49;;;;;;;14.67;7.00;;;;;;;5.47;100.00;100492.03;5119664;27;20193;-84
2022/01/17 09:39:18;;;;;;;42.90;36.33;;;;;;;5.33;100.00;100493.22;5164102;27;20228;-83
2022/01/17 09:41:47;;;;;;;14.60;6.97;;;;;;;5.46;100.00;100497.31;5172513;27;20265;-83
2022/01/17 09:44:16;;;;;;;14.70;7.50;;;;;;;5.40;100.00;100515.81;5177814;27;20655;-83
2022/01/17 09:46:48;;;;;;;13.40;6.90;;;;;;;5.43;100.00;100507.91;5169659;27;20209;-82
2022/01/17 09:49:32;;;;;;;13.37;7.80;;;;;;;5.51;100.00;100511.22;5170997;27;20197;-83
2022/01/17 09:54:50;;;;;;;14.87;7.37;;;;;;;5.53;100.00;100498.06;5177564;27;20189;-83
2022/01/17 09:57:20;;;;;;;12.43;7.23;;;;;;;5.50;100.00;100505.97;5174410;27;20592;-83
2022/01/17 09:59:49;;;;;;;13.90;7.70;;;;;;;5.56;100.00;100501.47;5173065;27;20223;-83
2022/01/17 10:02:18;;;;;;;16.57;8.23;;;;;;;5.50;100.00;100506.88;5172410;27;20647;-83
2022/01/17 10:04:47;;;;;;;14.67;8.00;;;;;;;5.46;100.00;100531.47;5176235;27;20217;-83
2022/01/17 10:07:16;;;;;;;21.93;10.43;;;;;;;5.46;100.00;100507.81;5179688;27;20221;-83
2022/01/17 10:09:58;;;;;;;13.33;7.70;;;;;;;5.54;100.00;100510.28;5181357;27;20185;-83
2022/01/17 10:12:26;;;;;;;14.60;8.43;;;;;;;5.64;100.00;100528.44;5172646;27;20204;-83
2022/01/17 10:15:01;;;;;;;20.73;11.87;;;;;;;5.55;100.00;100526.03;5182093;27;20651;-82
2022/01/17 10:17:44;;;;;;;20.27;11.53;;;;;;;5.55;100.00;100499.75;5177474;27;20196;-83
2022/01/17 10:20:16;;;;;;;17.17;8.80;;;;;;;5.68;100.00;100502.94;5171300;27;20193;-83
2022/01/17 10:22:51;;;;;;;16.63;8.43;;;;;;;5.74;100.00;100480.03;5172680;27;20199;-83
2022/01/17 10:25:49;;;;;;;17.03;9.30;;;;;;;5.78;100.00;100477.31;5089672;28;20197;-83
2022/01/17 10:28:42;;;;;;;18.53;9.27;;;;;;;5.75;100.00;100476.50;5089197;28;20218;-83
2022/01/17 10:34:52;;;;;;;18.13;11.37;;;;;;;5.83;100.00;100481.59;5088434;28;20203;-83
2022/01/17 10:37:09;;;;;;;17.97;9.63;;;;;;;5.69;100.00;100471.41;5092040;28;20195;-83
2022/01/17 10:39:57;;;;;;;27.00;12.77;;;;;;;5.66;100.00;100458.31;5085897;28;20238;-83
2022/01/17 10:42:29;;;;;;;31.90;25.00;;;;;;;5.68;100.00;100448.63;5085087;28;20646;-83
2022/01/17 10:45:05;;;;;;;17.83;10.33;;;;;;;5.47;100.00;100446.47;5051151;28;20242;-83
2022/01/17 10:47:39;;;;;;;21.20;11.00;;;;;;;5.53;100.00;100469.16;5049995;28;20224;-83
2022/01/17 10:50:11;;;;;;;23.53;14.00;;;;;;;5.58;100.00;100485.66;5051156;27;20265;-83
2022/01/17 10:52:40;;;;;;;18.27;10.60;;;;;;;5.53;100.00;100498.06;5065443;27;20201;-84
2022/01/17 10:55:13;;;;;;;14.33;8.83;;;;;;;5.61;100.00;100507.50;5060877;27;20201;-83
2022/01/17 10:57:46;;;;;;;16.50;9.80;;;;;;;5.59;100.00;100501.38;5050854;28;20203;-83
2022/01/17 11:00:17;;;;;;;17.70;9.37;;;;;;;5.66;100.00;100500.38;5056884;28;20214;-83
2022/01/17 11:02:49;;;;;;;19.70;10.30;;;;;;;5.58;100.00;100496.16;5005007;28;20202;-84
2022/01/17 11:05:19;;;;;;;21.40;10.97;;;;;;;5.51;100.00;100500.72;5006572;28;20687;-83
2022/01/17 11:07:53;;;;;;;22.33;11.10;;;;;;;5.47;100.00;100514.81;5009206;28;20325;-83
2022/01/17 11:10:24;;;;;;;17.90;10.67;;;;;;;5.62;100.00;100506.59;5068528;28;20185;-83
2022/01/17 11:12:56;;;;;;;20.67;11.53;;;;;;;5.64;100.00;100493.41;5071519;28;20193;-83
2022/01/17 11:15:26;;;;;;;20.77;11.57;;;;;;;5.51;100.00;100481.47;5068885;28;20192;-83
2022/01/17 11:17:56;;;;;;;18.63;11.43;;;;;;;5.54;100.00;100489.28;5070217;28;20209;-83
2022/01/17 11:20:27;;;;;;;23.17;13.20;;;;;;;5.51;100.00;100487.59;5077441;28;20692;-83
2022/01/17 11:22:59;;;;;;;20.13;11.60;;;;;;;5.51;100.00;100491.97;5083774;28;20674;-83
2022/01/17 11:25:31;;;;;;;14.47;9.90;;;;;;;5.52;100.00;100494.56;5084805;28;20206;-83
2022/01/17 11:28:04;;;;;;;16.30;10.03;;;;;;;5.56;100.00;100477.81;5080077;28;20212;-83
2022/01/17 11:30:34;;;;;;;18.47;10.17;;;;;;;5.65;100.00;100474.97;5055015;28;20201;-83
2022/01/17 11:33:06;;;;;;;18.50;10.30;;;;;;;5.76;100.00;100464.22;5049431;27;20201;-83
2022/01/17 11:35:37;;;;;;;16.07;10.63;;;;;;;5.65;100.00;100460.97;5055425;28;20203;-83
2022/01/17 11:38:10;;;;;;;18.80;10.03;;;;;;;5.71;100.00;100466.09;5055459;28;20201;-84
2022/01/17 11:40:40;;;;;;;21.40;13.67;;;;;;;5.57;100.00;100470.78;5077136;27;20232;-83
2022/01/17 11:43:23;;;;;;;18.40;10.83;;;;;;;5.71;100.00;100487.13;5080855;27;20189;-83
2022/01/17 11:45:54;;;;;;;16.17;10.57;;;;;;;5.79;100.00;100479.03;5081097;27;20248;-83